createdAt,value
2022-12-03T00:00:17.269Z,3.47
2022-12-03T00:02:45.861Z,3.28
2022-12-03T00:05:14.543Z,3.40
2022-12-03T00:07:43.111Z,3.51
2022-12-03T00:10:13.507Z,3.47
2022-12-03T00:12:43.451Z,3.32
2022-12-03T00:15:12.843Z,3.23
2022-12-03T00:17:41.378Z,3.39
2022-12-03T00:20:13.189Z,3.45
2022-12-03T00:22:41.824Z,3.41
2022-12-03T00:25:11.053Z,3.33
2022-12-03T00:27:39.596Z,3.36
2022-12-03T00:30:12.574Z,3.43
2022-12-03T00:32:51.268Z,3.25
2022-12-03T00:35:19.999Z,3.38
2022-12-03T00:37:48.607Z,3.30
2022-12-03T00:40:17.260Z,3.30
2022-12-03T00:42:45.826Z,3.41
2022-12-03T00:45:15.876Z,3.39
2022-12-03T00:47:44.355Z,3.33
2022-12-03T00:50:13.600Z,3.41
2022-12-03T00:52:42.072Z,3.27
2022-12-03T00:55:12.993Z,3.39
2022-12-03T00:57:42.142Z,3.44
2022-12-03T01:00:13.723Z,3.38
2022-12-03T01:02:43.808Z,3.44
2022-12-03T01:05:12.501Z,3.45
2022-12-03T01:07:41.101Z,3.49
2022-12-03T01:10:10.922Z,3.51
2022-12-03T01:12:39.593Z,3.49
2022-12-03T01:15:10.001Z,3.38
2022-12-03T01:17:39.227Z,3.27
2022-12-03T01:20:12.172Z,3.31
2022-12-03T01:22:40.722Z,3.31
2022-12-03T01:25:10.294Z,3.31
2022-12-03T01:27:38.766Z,3.26
2022-12-03T01:30:10.770Z,3.47
2022-12-03T01:32:38.465Z,3.29
2022-12-03T01:35:09.459Z,3.27
2022-12-03T01:37:37.987Z,3.27
2022-12-03T01:40:09.792Z,3.28
2022-12-03T01:42:42.635Z,3.04
2022-12-03T01:45:22.071Z,3.21
2022-12-03T01:47:51.164Z,3.08
2022-12-03T01:50:28.648Z,3.26
2022-12-03T01:53:01.234Z,3.19
2022-12-03T01:55:30.345Z,3.38
2022-12-03T01:58:02.967Z,3.30
2022-12-03T02:00:31.976Z,3.13
2022-12-03T02:03:05.051Z,3.15
2022-12-03T02:05:36.364Z,3.19
2022-12-03T02:08:33.704Z,3.40
2022-12-03T02:11:06.984Z,3.28
2022-12-03T02:13:51.799Z,3.16
2022-12-03T02:16:20.662Z,3.16
2022-12-03T02:18:49.981Z,3.19
2022-12-03T02:21:28.956Z,3.26
2022-12-03T02:24:13.176Z,3.46
2022-12-03T02:26:43.250Z,3.31
2022-12-03T02:29:12.027Z,3.20
2022-12-03T02:31:40.731Z,3.10
2022-12-03T02:34:10.407Z,3.16
2022-12-03T02:36:40.307Z,3.27
2022-12-03T02:39:09.186Z,3.40
2022-12-03T02:41:55.160Z,3.28
2022-12-03T02:44:25.085Z,2.92
2022-12-03T02:46:53.711Z,3.02
2022-12-03T02:49:22.340Z,3.09
2022-12-03T02:51:51.339Z,3.27
2022-12-03T02:54:20.143Z,3.32
2022-12-03T02:56:48.775Z,3.50
2022-12-03T02:59:17.772Z,3.32
2022-12-03T03:01:48.233Z,3.18
2022-12-03T03:04:17.515Z,3.26
2022-12-03T03:06:46.853Z,3.32
2022-12-03T03:09:15.461Z,3.31
2022-12-03T03:11:44.216Z,3.17
2022-12-03T03:14:13.317Z,3.13
2022-12-03T03:16:41.987Z,2.95
2022-12-03T03:19:12.584Z,3.29
2022-12-03T03:21:41.164Z,3.35
2022-12-03T03:24:10.986Z,3.28
2022-12-03T03:26:39.529Z,3.31
2022-12-03T03:29:08.420Z,3.33
2022-12-03T03:31:37.589Z,3.23
2022-12-03T03:34:06.457Z,3.25
2022-12-03T03:36:37.271Z,3.33
2022-12-03T03:39:07.647Z,3.46
2022-12-03T03:41:37.360Z,3.45
2022-12-03T03:44:09.631Z,3.32
2022-12-03T03:46:38.902Z,3.49
2022-12-03T03:49:09.651Z,3.46
2022-12-03T03:51:40.741Z,3.47
2022-12-03T03:54:10.029Z,3.52
2022-12-03T03:56:39.116Z,3.50
2022-12-03T03:59:07.699Z,3.69
2022-12-03T04:01:36.964Z,3.41
2022-12-03T04:04:07.922Z,3.28
2022-12-03T04:06:36.462Z,3.20
2022-12-03T04:09:06.379Z,3.37
2022-12-03T04:11:52.344Z,3.49
2022-12-03T04:14:20.897Z,3.50
2022-12-03T04:16:50.589Z,3.41
2022-12-03T04:19:19.546Z,3.49
2022-12-03T04:22:05.680Z,3.36
2022-12-03T04:24:35.674Z,3.11
2022-12-03T04:27:21.867Z,3.43
2022-12-03T04:29:50.382Z,3.25
2022-12-03T04:32:36.817Z,3.32
2022-12-03T04:35:24.174Z,3.35
2022-12-03T04:37:52.864Z,3.54
2022-12-03T04:40:40.390Z,3.52
2022-12-03T04:43:09.069Z,3.42
2022-12-03T04:45:37.712Z,3.46
2022-12-03T04:48:06.925Z,3.63
2022-12-03T04:50:35.624Z,3.58
2022-12-03T04:53:04.138Z,3.55
2022-12-03T04:55:34.235Z,3.64
2022-12-03T04:58:03.017Z,3.75
2022-12-03T05:00:31.652Z,3.59
2022-12-03T05:03:00.413Z,3.58
2022-12-03T05:05:28.973Z,3.48
2022-12-03T05:07:57.687Z,3.41
2022-12-03T05:10:36.178Z,3.41
2022-12-03T05:13:04.822Z,3.33
2022-12-03T05:15:33.443Z,3.30
2022-12-03T05:18:01.943Z,3.21
2022-12-03T05:20:44.764Z,3.23
2022-12-03T05:23:18.343Z,3.23
2022-12-03T05:25:48.564Z,3.30
2022-12-03T05:28:17.233Z,3.32
2022-12-03T05:30:45.820Z,3.44
2022-12-03T05:33:14.454Z,3.48
2022-12-03T05:35:43.057Z,3.48
2022-12-03T05:38:11.659Z,3.40
2022-12-03T05:40:40.220Z,3.27
2022-12-03T05:43:09.287Z,3.32
2022-12-03T05:45:40.840Z,3.33
2022-12-03T05:48:11.884Z,3.26
2022-12-03T05:50:44.348Z,3.33
2022-12-03T05:53:17.539Z,3.38
2022-12-03T05:55:46.974Z,3.44
2022-12-03T05:58:16.954Z,3.50
2022-12-03T06:00:45.562Z,3.61
2022-12-03T06:03:14.278Z,3.48
2022-12-03T06:05:42.939Z,3.58
2022-12-03T06:08:13.780Z,3.36
2022-12-03T06:10:42.639Z,3.27
2022-12-03T06:13:11.161Z,3.33
2022-12-03T06:15:44.006Z,3.33
2022-12-03T06:18:12.836Z,3.27
2022-12-03T06:20:41.579Z,3.30
2022-12-03T06:23:10.189Z,3.37
2022-12-03T06:25:38.719Z,3.30
2022-12-03T06:28:07.492Z,3.18
2022-12-03T06:30:43.945Z,3.34
2022-12-03T06:33:12.794Z,3.30
2022-12-03T06:35:41.335Z,3.18
2022-12-03T06:38:09.911Z,3.16
2022-12-03T06:40:45.923Z,3.26
2022-12-03T06:43:14.584Z,3.32
2022-12-03T06:45:47.894Z,3.21
2022-12-03T06:48:17.009Z,3.07
2022-12-03T06:50:45.569Z,3.17
2022-12-03T06:53:14.272Z,3.26
2022-12-03T06:55:42.786Z,3.22
2022-12-03T06:58:11.318Z,3.28
2022-12-03T07:00:53.920Z,3.36
2022-12-03T07:03:24.410Z,3.45
2022-12-03T07:05:53.225Z,3.45
2022-12-03T07:08:21.902Z,3.38
2022-12-03T07:10:50.426Z,3.31
2022-12-03T07:13:18.958Z,3.30
2022-12-03T07:15:49.005Z,3.31
2022-12-03T07:18:17.932Z,3.47
2022-12-03T07:20:46.719Z,3.37
2022-12-03T07:23:15.196Z,3.39
2022-12-03T07:25:43.838Z,3.35
2022-12-03T07:28:12.471Z,3.30
2022-12-03T07:30:41.046Z,3.29
2022-12-03T07:33:11.147Z,3.20
2022-12-03T07:35:39.716Z,3.24
2022-12-03T07:38:08.363Z,3.15
2022-12-03T07:40:36.919Z,3.27
2022-12-03T07:43:05.648Z,3.26
2022-12-03T07:45:34.247Z,3.29
2022-12-03T07:48:02.887Z,3.38
2022-12-03T07:50:32.913Z,3.52
2022-12-03T07:53:01.429Z,3.66
2022-12-03T07:55:30.066Z,3.52
2022-12-03T07:57:58.658Z,3.66
2022-12-03T08:00:27.519Z,3.73
2022-12-03T08:02:56.770Z,3.77
2022-12-03T08:05:27.090Z,3.78
2022-12-03T08:07:57.310Z,3.66
2022-12-03T08:10:58.252Z,3.42
2022-12-03T08:13:32.879Z,3.63
2022-12-03T08:16:15.526Z,3.73
2022-12-03T08:18:44.977Z,3.64
2022-12-03T08:21:16.455Z,3.73
2022-12-03T08:23:46.956Z,3.78
2022-12-03T08:26:24.292Z,3.77
2022-12-03T08:28:54.033Z,3.62
2022-12-03T08:31:32.291Z,3.69
2022-12-03T08:34:18.696Z,3.79
2022-12-03T08:36:48.921Z,3.83
2022-12-03T08:39:33.279Z,3.80
2022-12-03T08:42:31.556Z,3.85
2022-12-03T08:45:42.717Z,3.89
2022-12-03T08:48:36.860Z,3.77
2022-12-03T08:51:20.349Z,3.94
2022-12-03T08:53:54.284Z,3.71
2022-12-03T08:56:31.195Z,3.73
2022-12-03T08:59:04.068Z,3.71
2022-12-03T09:01:39.537Z,3.66
2022-12-03T09:04:28.368Z,3.56
2022-12-03T09:07:00.259Z,3.51
2022-12-03T09:09:29.233Z,3.54
2022-12-03T09:11:59.183Z,3.58
2022-12-03T09:14:27.763Z,3.47
2022-12-03T09:16:57.065Z,3.62
2022-12-03T09:19:27.967Z,3.64
2022-12-03T09:21:56.692Z,3.63
2022-12-03T09:24:25.428Z,3.73
2022-12-03T09:26:54.126Z,3.87
2022-12-03T09:29:24.231Z,4.07
2022-12-03T09:31:54.631Z,4.09
2022-12-03T09:34:23.461Z,4.20
2022-12-03T09:36:51.917Z,4.09
2022-12-03T09:39:20.906Z,4.14
2022-12-03T09:41:50.822Z,4.22
2022-12-03T09:44:20.662Z,4.19
2022-12-03T09:46:51.289Z,4.34
2022-12-03T09:49:20.869Z,4.24
2022-12-03T09:51:49.725Z,4.23
2022-12-03T09:54:25.457Z,4.42
2022-12-03T09:56:58.712Z,4.34
2022-12-03T09:59:33.186Z,4.30
2022-12-03T10:02:06.800Z,4.47
2022-12-03T10:04:35.699Z,4.55
2022-12-03T10:07:04.453Z,4.45
2022-12-03T10:09:35.457Z,4.48
2022-12-03T10:12:04.467Z,4.50
2022-12-03T10:14:33.295Z,4.65
2022-12-03T10:17:03.540Z,4.63
2022-12-03T10:19:35.676Z,4.51
2022-12-03T10:22:04.897Z,4.53
2022-12-03T10:24:35.786Z,4.46
2022-12-03T10:27:20.511Z,4.62
2022-12-03T10:29:57.372Z,4.66
2022-12-03T10:32:41.643Z,4.38
2022-12-03T10:35:14.817Z,4.51
2022-12-03T10:38:02.509Z,4.65
2022-12-03T10:40:33.539Z,4.84
2022-12-03T10:43:21.462Z,4.62
2022-12-03T10:46:11.131Z,4.74
2022-12-03T10:48:41.152Z,4.23
2022-12-03T10:51:21.398Z,4.50
2022-12-03T10:53:52.244Z,4.69
2022-12-03T10:56:28.121Z,4.47
2022-12-03T10:58:57.320Z,4.04
2022-12-03T11:01:27.807Z,4.28
2022-12-03T11:04:05.591Z,4.04
2022-12-03T11:06:34.332Z,3.70
2022-12-03T11:09:08.767Z,3.80
2022-12-03T11:11:38.099Z,3.68
2022-12-03T11:14:07.184Z,3.66
2022-12-03T11:17:09.948Z,3.86
2022-12-03T11:19:50.238Z,3.65
2022-12-03T11:22:40.965Z,3.78
2022-12-03T11:25:51.493Z,3.59
2022-12-03T11:28:53.299Z,3.47
2022-12-03T11:31:43.768Z,3.37
2022-12-03T11:34:42.057Z,3.58
2022-12-03T11:37:27.600Z,3.44
2022-12-03T11:40:26.628Z,3.52
2022-12-03T11:42:55.297Z,3.46
2022-12-03T11:45:35.158Z,3.59
2022-12-03T11:48:13.745Z,3.75
2022-12-03T11:50:48.499Z,3.80
2022-12-03T11:53:23.688Z,3.84
2022-12-03T11:56:06.592Z,3.91
2022-12-03T11:58:38.201Z,3.36
2022-12-03T12:01:09.366Z,3.28
2022-12-03T12:03:45.933Z,3.18
2022-12-03T12:06:17.727Z,3.15
2022-12-03T12:09:00.324Z,3.31
2022-12-03T12:11:31.425Z,3.36
2022-12-03T12:14:02.165Z,3.51
2022-12-03T12:16:50.283Z,3.61
2022-12-03T12:19:43.827Z,3.53
2022-12-03T12:22:30.123Z,3.48
2022-12-03T12:25:01.618Z,3.54
2022-12-03T12:27:37.795Z,3.25
2022-12-03T12:30:13.797Z,3.30
2022-12-03T12:32:47.731Z,3.32
2022-12-03T12:35:20.430Z,3.12
2022-12-03T12:37:58.957Z,3.16
2022-12-03T12:40:33.913Z,3.40
2022-12-03T12:43:12.017Z,3.32
2022-12-03T12:45:45.143Z,3.40
2022-12-03T12:48:23.537Z,3.34
2022-12-03T12:50:59.952Z,3.63
2022-12-03T12:53:31.728Z,3.58
2022-12-03T12:56:08.496Z,3.54
2022-12-03T12:58:37.878Z,3.08
2022-12-03T13:01:18.682Z,3.27
2022-12-03T13:03:51.627Z,3.25
2022-12-03T13:06:27.293Z,3.15
2022-12-03T13:08:58.100Z,3.03
2022-12-03T13:11:41.441Z,3.29
2022-12-03T13:14:18.667Z,3.48
2022-12-03T13:16:48.545Z,3.20
2022-12-03T13:19:26.849Z,3.26
2022-12-03T13:21:57.965Z,3.47
2022-12-03T13:24:34.982Z,3.07
2022-12-03T13:27:25.669Z,3.20
2022-12-03T13:30:01.182Z,3.16
2022-12-03T13:32:34.281Z,3.55
2022-12-03T13:35:07.820Z,3.67
2022-12-03T13:37:38.034Z,3.39
2022-12-03T13:40:22.463Z,3.27
2022-12-03T13:42:54.253Z,3.12
2022-12-03T13:45:37.931Z,3.16
2022-12-03T13:48:22.885Z,3.02
2022-12-03T13:50:53.846Z,3.13
2022-12-03T13:53:25.619Z,3.25
2022-12-03T13:56:02.115Z,3.15
2022-12-03T13:58:32.190Z,2.87
2022-12-03T14:01:15.794Z,2.78
2022-12-03T14:03:45.468Z,2.78
2022-12-03T14:06:14.432Z,2.83
2022-12-03T14:08:43.230Z,2.80
2022-12-03T14:11:33.231Z,2.74
2022-12-03T14:14:03.202Z,2.84
2022-12-03T14:16:32.064Z,2.70
2022-12-03T14:19:00.755Z,2.70
2022-12-03T14:21:33.063Z,2.81
2022-12-03T14:24:07.124Z,2.77
2022-12-03T14:26:35.761Z,2.73
2022-12-03T14:29:08.723Z,2.75
2022-12-03T14:31:37.827Z,2.61
2022-12-03T14:34:06.568Z,2.68
2022-12-03T14:36:35.196Z,2.71
2022-12-03T14:39:03.849Z,2.58
2022-12-03T14:41:49.968Z,2.73
2022-12-03T14:44:21.845Z,2.69
2022-12-03T14:46:56.564Z,2.75
2022-12-03T14:49:25.800Z,2.81
2022-12-03T14:51:54.614Z,2.77
2022-12-03T14:54:23.601Z,2.73
2022-12-03T14:56:52.147Z,2.61
2022-12-03T14:59:27.474Z,2.54
2022-12-03T15:01:57.179Z,2.54
2022-12-03T15:04:26.121Z,2.58
2022-12-03T15:06:54.842Z,2.62
2022-12-03T15:09:23.743Z,2.63
2022-12-03T15:11:52.416Z,2.65
2022-12-03T15:14:22.514Z,2.77
2022-12-03T15:16:51.317Z,2.64
2022-12-03T15:19:20.028Z,2.64
2022-12-03T15:21:48.631Z,2.53
2022-12-03T15:24:17.180Z,2.49
2022-12-03T15:26:46.144Z,2.49
2022-12-03T15:29:15.160Z,2.58
2022-12-03T15:31:45.168Z,2.58
2022-12-03T15:34:18.725Z,2.63
2022-12-03T15:36:50.673Z,2.59
2022-12-03T15:39:19.200Z,2.50
2022-12-03T15:41:49.138Z,2.51
2022-12-03T15:44:18.902Z,2.46
2022-12-03T15:46:48.851Z,2.54
2022-12-03T15:49:18.333Z,2.58
2022-12-03T15:51:46.895Z,2.57
2022-12-03T15:54:15.535Z,2.52
2022-12-03T15:56:44.249Z,2.50
2022-12-03T15:59:13.404Z,2.52
2022-12-03T16:01:42.186Z,2.53
2022-12-03T16:04:12.519Z,2.44
2022-12-03T16:06:41.282Z,2.50
2022-12-03T16:09:09.873Z,2.51
2022-12-03T16:11:38.808Z,2.66
2022-12-03T16:14:07.508Z,2.60
2022-12-03T16:16:36.548Z,2.57
2022-12-03T16:19:05.194Z,2.49
2022-12-03T16:21:35.649Z,2.56
2022-12-03T16:24:04.761Z,2.55
2022-12-03T16:26:33.522Z,2.54
2022-12-03T16:29:02.222Z,2.49
2022-12-03T16:31:31.438Z,2.50
2022-12-03T16:34:00.416Z,2.57
2022-12-03T16:36:29.139Z,2.60
2022-12-03T16:38:59.135Z,2.52
2022-12-03T16:41:27.978Z,2.60
2022-12-03T16:43:56.622Z,2.74
2022-12-03T16:46:26.811Z,2.77
2022-12-03T16:48:57.972Z,2.74
2022-12-03T16:51:28.000Z,2.74
2022-12-03T16:53:57.965Z,2.66
2022-12-03T16:56:26.568Z,2.69
2022-12-03T16:58:55.084Z,2.56
2022-12-03T17:01:24.217Z,2.48
2022-12-03T17:03:52.964Z,2.47
2022-12-03T17:06:21.513Z,2.50
2022-12-03T17:08:50.362Z,2.56
2022-12-03T17:11:20.527Z,2.51
2022-12-03T17:13:48.966Z,2.56
2022-12-03T17:16:17.625Z,2.75
2022-12-03T17:18:46.367Z,2.64
2022-12-03T17:21:14.884Z,2.67
2022-12-03T17:23:44.738Z,2.58
2022-12-03T17:26:15.183Z,2.62
2022-12-03T17:28:45.731Z,2.52
2022-12-03T17:31:14.935Z,2.41
2022-12-03T17:33:44.065Z,2.47
2022-12-03T17:36:12.870Z,2.63
2022-12-03T17:38:41.537Z,2.61
2022-12-03T17:41:10.142Z,2.69
2022-12-03T17:43:38.728Z,2.51
2022-12-03T17:46:08.845Z,2.60
2022-12-03T17:48:37.884Z,2.57
2022-12-03T17:51:09.500Z,2.63
2022-12-03T17:53:38.079Z,2.71
2022-12-03T17:56:07.284Z,2.72
2022-12-03T17:58:35.939Z,2.66
2022-12-03T18:01:05.627Z,2.64
2022-12-03T18:03:35.706Z,2.61
2022-12-03T18:06:05.069Z,2.58
2022-12-03T18:08:33.653Z,2.72
2022-12-03T18:11:02.292Z,2.59
2022-12-03T18:13:30.936Z,2.59
2022-12-03T18:15:59.698Z,2.57
2022-12-03T18:18:29.038Z,2.52
2022-12-03T18:21:02.120Z,2.65
2022-12-03T18:23:31.618Z,2.61
2022-12-03T18:26:02.019Z,2.54
2022-12-03T18:28:31.248Z,2.47
2022-12-03T18:31:00.727Z,2.55
2022-12-03T18:33:29.755Z,2.46
2022-12-03T18:35:59.964Z,2.54
2022-12-03T18:38:32.554Z,2.63
2022-12-03T18:41:01.569Z,2.66
2022-12-03T18:43:30.869Z,2.56
2022-12-03T18:45:59.514Z,2.70
2022-12-03T18:48:28.152Z,2.55
2022-12-03T18:50:57.117Z,2.65
2022-12-03T18:53:26.990Z,2.48
2022-12-03T18:55:55.496Z,2.36
2022-12-03T18:58:23.974Z,2.49
2022-12-03T19:00:52.709Z,2.48
2022-12-03T19:03:21.936Z,2.35
2022-12-03T19:05:50.627Z,2.41
2022-12-03T19:08:23.308Z,2.46
2022-12-03T19:11:00.075Z,2.44
2022-12-03T19:13:29.477Z,2.50
2022-12-03T19:15:58.087Z,2.67
2022-12-03T19:18:26.970Z,2.66
2022-12-03T19:20:55.519Z,2.47
2022-12-03T19:23:24.656Z,2.57
2022-12-03T19:25:59.235Z,2.56
2022-12-03T19:28:29.107Z,2.45
2022-12-03T19:31:00.767Z,2.53
2022-12-03T19:33:31.006Z,2.63
2022-12-03T19:36:00.942Z,2.78
2022-12-03T19:38:31.363Z,2.65
2022-12-03T19:41:03.314Z,2.69
2022-12-03T19:43:32.877Z,2.67
2022-12-03T19:46:05.039Z,2.63
2022-12-03T19:48:35.759Z,2.65
2022-12-03T19:51:32.350Z,2.67
2022-12-03T19:53:55.420Z,2.73
2022-12-03T19:56:25.559Z,2.64
2022-12-03T19:58:56.719Z,2.50
2022-12-03T20:01:28.788Z,2.44
2022-12-03T20:04:00.194Z,2.52
2022-12-03T20:06:34.619Z,2.59
2022-12-03T20:09:07.659Z,2.62
2022-12-03T20:11:37.775Z,2.64
2022-12-03T20:14:09.174Z,2.65
2022-12-03T20:16:38.454Z,2.64
2022-12-03T20:19:11.162Z,2.60
2022-12-03T20:21:41.069Z,2.59
2022-12-03T20:24:18.266Z,2.67
2022-12-03T20:26:48.704Z,2.74
2022-12-03T20:29:17.938Z,2.60
2022-12-03T20:31:46.809Z,2.67
2022-12-03T20:34:15.657Z,2.72
2022-12-03T20:36:45.546Z,2.77
2022-12-03T20:39:14.151Z,2.62
2022-12-03T20:41:42.838Z,2.86
2022-12-03T20:44:13.934Z,2.60
2022-12-03T20:46:42.641Z,2.80
2022-12-03T20:49:11.255Z,3.00
2022-12-03T20:51:41.112Z,2.85
2022-12-03T20:54:10.621Z,2.82
2022-12-03T20:56:41.983Z,2.97
2022-12-03T20:59:15.766Z,3.03
2022-12-03T21:01:45.461Z,2.90
2022-12-03T21:04:16.150Z,2.85
2022-12-03T21:06:45.263Z,2.89
2022-12-03T21:09:14.890Z,2.79
2022-12-03T21:11:43.648Z,2.85
2022-12-03T21:14:13.670Z,2.99
2022-12-03T21:17:07.329Z,3.04
2022-12-03T21:19:35.210Z,3.16
2022-12-03T21:22:03.804Z,3.20
2022-12-03T21:24:32.385Z,3.22
2022-12-03T21:27:01.015Z,3.22
2022-12-03T21:29:31.336Z,3.00
2022-12-03T21:32:00.307Z,3.03
2022-12-03T21:34:35.783Z,2.87
2022-12-03T21:37:05.651Z,2.70
2022-12-03T21:39:34.308Z,2.82
2022-12-03T21:42:34.100Z,2.89
2022-12-03T21:44:53.559Z,2.71
2022-12-03T21:47:22.172Z,2.74
2022-12-03T21:49:50.731Z,2.84
2022-12-03T21:52:19.525Z,2.75
2022-12-03T21:54:48.291Z,2.87
2022-12-03T21:57:16.926Z,2.98
2022-12-03T21:59:45.461Z,2.88
2022-12-03T22:02:15.590Z,2.79
2022-12-03T22:04:44.364Z,2.91
2022-12-03T22:07:12.891Z,2.99
2022-12-03T22:09:44.882Z,2.88
2022-12-03T22:12:13.704Z,2.99
2022-12-03T22:14:42.352Z,2.92
2022-12-03T22:17:10.916Z,2.84
2022-12-03T22:19:40.821Z,2.93
2022-12-03T22:22:09.542Z,2.95
2022-12-03T22:24:38.608Z,2.96
2022-12-03T22:27:07.316Z,2.83
2022-12-03T22:29:35.965Z,2.97
2022-12-03T22:32:05.200Z,2.96
2022-12-03T22:34:34.539Z,2.94
2022-12-03T22:37:05.209Z,3.08
2022-12-03T22:39:34.046Z,3.06
2022-12-03T22:42:03.244Z,3.06
2022-12-03T22:44:32.006Z,2.90
2022-12-03T22:47:00.696Z,3.07
2022-12-03T22:49:29.601Z,3.06
2022-12-03T22:51:58.342Z,3.08
2022-12-03T22:54:28.474Z,3.17
2022-12-03T22:56:58.297Z,3.15
2022-12-03T22:59:27.085Z,2.98
2022-12-03T23:01:55.945Z,2.92
2022-12-03T23:04:28.093Z,2.91
2022-12-03T23:06:59.379Z,2.74
2022-12-03T23:09:30.025Z,2.76
2022-12-03T23:11:58.765Z,2.84
2022-12-03T23:14:27.466Z,2.81
2022-12-03T23:16:56.336Z,2.57
2022-12-03T23:19:25.226Z,2.54
2022-12-03T23:21:53.759Z,2.59
2022-12-03T23:24:22.372Z,2.47
2022-12-03T23:26:52.408Z,2.42
2022-12-03T23:29:20.942Z,2.47
2022-12-03T23:31:49.576Z,2.48
2022-12-03T23:34:18.677Z,2.51
2022-12-03T23:36:47.295Z,2.63
2022-12-03T23:39:15.872Z,2.67
2022-12-03T23:41:44.514Z,2.76
2022-12-03T23:44:14.334Z,2.70
2022-12-03T23:46:43.008Z,2.71
2022-12-03T23:49:11.864Z,2.63
2022-12-03T23:51:43.129Z,2.64
2022-12-03T23:54:15.699Z,2.72
2022-12-03T23:56:50.191Z,2.72
2022-12-03T23:59:21.929Z,2.76
